Time;durP1;ratioP1;P1;durP2;ratioP2;P2;SDS_P1;SDS_P2;PMS_P1;PMS_P2;Temp;Humidity;BMP_temperature;BMP_pressure;BME280_temperature;BME280_humidity;BME280_pressure;Samples;Min_cycle;Max_cycle;Signal;HPM_P1;HPM_P2
2021/01/26 00:00:54;;;;;;;10.00;4.28;;;;;;;;;;4875471;29;20052;-89
2021/01/26 00:03:23;;;;;;;8.35;4.45;;;;;;;;;;4872057;29;20066;-89
2021/01/26 00:05:52;;;;;;;12.18;4.93;;;;;;;;;;4874174;29;20045;-89
2021/01/26 00:08:21;;;;;;;5.78;3.10;;;;;;;;;;4867485;29;20053;-88
2021/01/26 00:10:52;;;;;;;8.57;3.85;;;;;;;;;;4876483;29;20057;-88
2021/01/26 00:13:38;;;;;;;8.25;4.03;;;;;;;;;;4871598;29;20029;-87
2021/01/26 00:16:11;;;;;;;8.65;4.20;;;;;;;;;;4878250;29;20056;-87
2021/01/26 00:18:40;;;;;;;10.15;4.13;;;;;;;;;;4861678;29;20050;-87
2021/01/26 00:21:08;;;;;;;10.95;3.58;;;;;;;;;;4872851;29;20064;-88
2021/01/26 00:23:40;;;;;;;15.95;3.97;;;;;;;;;;4875040;29;20065;-87
2021/01/26 00:26:10;;;;;;;5.70;3.47;;;;;;;;;;4874294;29;20131;-89
2021/01/26 00:28:38;;;;;;;8.38;3.83;;;;;;;;;;4874572;29;20057;-88
2021/01/26 00:31:06;;;;;;;8.90;5.78;;;;;;;;;;4865292;29;20058;-89
2021/01/26 00:33:40;;;;;;;10.05;4.43;;;;;;;;;;4872609;29;20058;-89
2021/01/26 00:36:18;;;;;;;9.73;3.80;;;;;;;;;;4871170;29;20057;-87
2021/01/26 00:38:46;;;;;;;6.35;4.00;;;;;;;;;;4869812;29;20058;-90
2021/01/26 00:41:16;;;;;;;11.88;4.22;;;;;;;;;;4876705;29;20050;-87
2021/01/26 00:43:47;;;;;;;9.90;4.20;;;1.50;99.90;;;;;;4876510;29;20060;-90
2021/01/26 00:46:16;;;;;;;7.18;3.58;;;;;;;;;;4854197;29;20073;-90
2021/01/26 00:48:46;;;;;;;11.23;4.67;;;;;;;;;;4839516;29;20053;-90
2021/01/26 00:51:14;;;;;;;12.75;4.70;;;;;;;;;;4869503;29;20060;-88
2021/01/26 00:53:42;;;;;;;15.57;4.75;;;;;;;;;;4863155;29;20057;-88
2021/01/26 00:56:15;;;;;;;7.95;4.53;;;;;;;;;;4831286;29;20073;-89
2021/01/26 00:58:45;;;;;;;10.02;4.78;;;;;;;;;;4852954;29;20061;-91
2021/01/26 01:01:19;;;;;;;6.90;3.47;;;;;;;;;;4843897;29;20069;-93
2021/01/26 01:03:48;;;;;;;13.40;4.40;;;;;;;;;;4868314;29;20064;-88
2021/01/26 01:06:16;;;;;;;14.07;4.25;;;;;;;;;;4867217;29;20049;-92
2021/01/26 01:08:43;;;;;;;10.20;3.63;;;;;;;;;;4845979;29;20062;-88
2021/01/26 01:11:16;;;;;;;5.15;3.95;;;1.40;99.90;;;;;;4861787;29;20046;-89
2021/01/26 01:13:47;;;;;;;9.48;3.40;;;;;;;;;;4838663;29;20129;-90
2021/01/26 01:16:18;;;;;;;12.52;6.10;;;;;;;;;;4874969;29;20053;-87
2021/01/26 01:18:47;;;;;;;8.63;4.38;;;;;;;;;;4885320;29;20072;-88
2021/01/26 01:21:17;;;;;;;10.55;4.72;;;;;;;;;;4881067;29;20062;-89
2021/01/26 01:23:46;;;;;;;13.57;5.75;;;;;;;;;;4869968;29;20076;-89
2021/01/26 01:26:14;;;;;;;13.45;5.05;;;;;;;;;;4869929;29;20045;-88
2021/01/26 01:28:42;;;;;;;11.85;4.43;;;;;;;;;;4870954;29;20060;-89
2021/01/26 01:31:10;;;;;;;10.15;4.53;;;;;;;;;;4890337;29;20049;-91
2021/01/26 01:33:37;;;;;;;9.32;4.43;;;;;;;;;;4876829;29;20061;-89
2021/01/26 01:36:05;;;;;;;13.30;4.85;;;;;;;;;;4853213;29;20049;-90
2021/01/26 01:38:37;;;;;;;11.55;4.75;;;;;;;;;;4874824;29;20053;-87
2021/01/26 01:41:04;;;;;;;9.32;4.82;;;;;;;;;;4885463;29;20070;-87
2021/01/26 01:43:34;;;;;;;17.70;5.53;;;;;;;;;;4871648;29;20075;-88
2021/01/26 01:46:12;;;;;;;9.95;4.53;;;1.20;99.90;;;;;;4879574;29;20053;-89
2021/01/26 01:48:56;;;;;;;12.98;5.45;;;3.00;99.90;;;;;;4876165;29;20057;-88
2021/01/26 01:51:31;;;;;;;11.82;5.45;;;1.30;99.90;;;;;;4874031;29;20053;-87
2021/01/26 01:54:43;;;;;;;11.57;4.80;;;1.30;99.90;;;;;;4900104;29;20059;-88
2021/01/26 01:57:26;;;;;;;14.95;7.57;;;1.10;99.90;;;;;;4866377;29;20061;-88
2021/01/26 01:59:59;;;;;;;12.77;5.15;;;1.20;99.90;;;;;;4861644;29;20603;-87
2021/01/26 02:02:28;;;;;;;11.82;4.60;;;1.20;99.90;;;;;;4885745;29;20148;-90
2021/01/26 02:05:03;;;;;;;15.02;5.95;;;1.20;99.90;;;;;;4871105;29;20037;-87
2021/01/26 02:07:32;;;;;;;7.53;4.60;;;;;;;;;;4890653;29;20052;-89
2021/01/26 02:10:01;;;;;;;8.35;4.95;;;;;;;;;;4877784;29;20052;-88
2021/01/26 02:12:28;;;;;;;13.23;5.25;;;;;;;;;;4876258;29;20079;-87
2021/01/26 02:14:59;;;;;;;13.02;5.40;;;1.10;99.90;;;;;;4863301;29;20057;-88
2021/01/26 02:17:31;;;;;;;12.73;5.60;;;;;;;;;;4876636;29;20055;-86
2021/01/26 02:20:39;;;;;;;10.43;4.65;;;1.10;99.90;;;;;;4881264;29;20071;-91
2021/01/26 02:23:37;;;;;;;8.55;4.75;;;1.10;99.90;;;;;;4890611;29;20072;-91
2021/01/26 02:26:32;;;;;;;22.48;6.25;;;1.00;99.90;;;;;;4888708;29;20053;-87
2021/01/26 02:29:15;;;;;;;12.27;5.15;;;1.20;99.90;;;;;;4901057;29;20056;-88
2021/01/26 02:31:56;;;;;;;17.02;6.35;;;;;;;;;;4883977;29;20417;-89
2021/01/26 02:35:01;;;;;;;12.18;5.45;;;1.20;99.90;;;;;;4862205;29;20041;-86
2021/01/26 02:37:29;;;;;;;13.73;8.25;;;;;;;;;;4886838;29;20067;-88
2021/01/26 02:40:03;;;;;;;16.48;6.03;;;;;;;;;;4899275;29;20049;-87
2021/01/26 02:42:45;;;;;;;19.42;8.30;;;;;;;;;;4895697;29;20068;-88
2021/01/26 02:45:30;;;;;;;11.23;5.47;;;;;;;;;;4872167;29;20653;-89
2021/01/26 02:48:27;;;;;;;14.90;6.20;;;1.30;99.90;;;;;;4903083;29;20067;-88
2021/01/26 02:51:08;;;;;;;12.98;5.57;;;1.40;99.90;;;;;;4875625;29;20515;-89
2021/01/26 02:54:20;;;;;;;12.57;5.10;;;1.30;99.90;;;;;;4870795;29;20075;-86
2021/01/26 02:56:54;;;;;;;;;;;1.30;99.90;;;;;;4866182;29;20053;-87
2021/01/26 02:59:57;;;;;;;15.88;5.97;;;1.30;99.90;;;;;;4889563;29;19927;-87
2021/01/26 03:02:38;;;;;;;14.02;5.15;;;1.40;99.90;;;;;;4883487;29;20060;-88
2021/01/26 03:05:10;;;;;;;10.23;4.85;;;;;;;;;;4873297;29;20057;-91
2021/01/26 03:07:48;;;;;;;18.48;6.07;;;;;;;;;;4869627;29;20069;-86
2021/01/26 03:10:19;;;;;;;10.88;5.65;;;1.30;99.90;;;;;;4876528;29;20053;-87
2021/01/26 03:12:53;;;;;;;10.73;5.50;;;;;;;;;;4889648;29;20538;-87
2021/01/26 03:15:51;;;;;;;10.55;4.75;;;1.50;99.90;;;;;;4852725;29;20053;-87
2021/01/26 03:18:27;;;;;;;19.15;8.23;;;1.30;99.90;;;;;;4882524;29;20056;-86
2021/01/26 03:20:57;;;;;;;11.98;4.72;;;;;;;;;;4908512;29;20519;-88
2021/01/26 03:23:47;;;;;;;15.70;5.32;;;1.40;99.90;;;;;;4888267;29;20053;-88
2021/01/26 03:26:20;;;;;;;13.63;5.97;;;1.50;99.90;;;;;;4884900;29;20075;-87
2021/01/26 03:28:55;;;;;;;12.20;5.75;;;1.50;99.90;;;;;;4899673;29;20068;-89
2021/01/26 03:31:30;;;;;;;9.60;5.63;;;1.70;99.90;;;;;;4892829;29;20068;-88
2021/01/26 03:33:58;;;;;;;13.25;5.40;;;;;;;;;;4870283;29;20061;-88
2021/01/26 03:36:25;;;;;;;9.32;5.22;;;;;;;;;;4850541;29;20413;-89
2021/01/26 03:38:54;;;;;;;10.02;4.85;;;;;;;;;;4899320;29;20060;-88
2021/01/26 03:41:22;;;;;;;13.13;5.50;;;;;;;;;;4872683;29;20061;-89
2021/01/26 03:43:52;;;;;;;12.95;5.05;;;;;;;;;;4871431;29;20049;-91
2021/01/26 03:46:47;;;;;;;13.57;5.72;;;1.50;99.90;;;;;;4873737;29;20052;-93
2021/01/26 03:49:27;;;;;;;10.07;4.88;;;;;;;;;;4857240;29;20431;-86
2021/01/26 03:52:22;;;;;;;17.05;5.80;;;1.40;99.90;;;;;;4870506;29;20061;-86
2021/01/26 03:55:08;;;;;;;10.55;5.00;;;1.20;99.90;;;;;;4869732;29;20053;-87
2021/01/26 03:57:39;;;;;;;9.68;4.93;;;;;;;;;;4871508;29;20068;-85
2021/01/26 04:00:15;;;;;;;8.38;4.13;;;1.50;99.90;;;;;;4850523;29;20055;-87
2021/01/26 04:03:13;;;;;;;11.35;6.03;;;1.70;99.90;;;;;;4873988;29;20063;-86
2021/01/26 04:06:10;;;;;;;7.20;4.70;;;1.40;99.90;;;;;;4888025;29;20056;-86
2021/01/26 04:08:46;;;;;;;12.57;5.32;;;1.40;99.90;;;;;;4899730;29;20068;-88
2021/01/26 04:11:37;;;;;;;13.23;5.07;;;1.30;99.90;;;;;;4900446;29;20060;-88
2021/01/26 04:14:16;;;;;;;10.82;6.13;;;1.50;99.90;;;;;;4870219;29;20091;-89
2021/01/26 04:17:05;;;;;;;12.10;5.00;;;1.60;99.90;;;;;;4905833;29;20049;-88
2021/01/26 04:19:42;;;;;;;8.85;4.75;;;1.50;99.90;;;;;;4864179;29;20057;-87
2021/01/26 04:22:12;;;;;;;12.07;4.45;;;1.60;99.90;;;;;;4890622;29;20056;-89
2021/01/26 04:24:40;;;;;;;7.60;3.65;;;;;;;;;;4889105;29;20485;-89
2021/01/26 04:27:18;;;;;;;18.80;5.07;;;1.50;99.90;;;;;;4891578;29;20065;-92
2021/01/26 04:29:46;;;;;;;15.95;5.72;;;;;;;;;;4888642;29;20073;-88
2021/01/26 04:32:18;;;;;;;;;;;1.50;99.90;;;;;;4883221;29;20049;-91
2021/01/26 04:34:47;;;;;;;12.70;3.95;;;;;;;;;;4870979;29;19931;-87
2021/01/26 04:37:15;;;;;;;7.68;3.67;;;;;;;;;;4877874;29;20061;-90
2021/01/26 04:39:42;;;;;;;9.70;3.78;;;;;;;;;;4905094;29;20056;-87
2021/01/26 04:42:19;;;;;;;9.00;4.30;;;1.60;99.90;;;;;;4879929;29;20061;-88
2021/01/26 04:45:06;;;;;;;7.90;4.28;;;1.80;99.90;;;;;;4875435;29;20064;-88
2021/01/26 04:47:50;;;;;;;6.78;3.65;;;1.70;99.90;;;;;;4882360;29;20061;-87
2021/01/26 04:50:45;;;;;;;7.80;4.50;;;1.70;99.90;;;;;;4889797;29;20095;-87
2021/01/26 04:53:47;;;;;;;10.00;3.25;;;2.00;99.90;;;;;;4908667;29;20064;-88
2021/01/26 04:56:58;;;;;;;9.73;3.85;;;1.80;99.90;;;;;;4876813;29;20053;-87
2021/01/26 04:59:29;;;;;;;11.65;5.25;;;;;;;;;;4900083;29;20517;-88
2021/01/26 05:02:09;;;;;;;15.18;4.95;;;;;;;;;;4865130;29;20056;-89
2021/01/26 05:04:46;;;;;;;7.05;4.03;;;1.90;99.90;;;;;;4908766;29;20061;-86
2021/01/26 05:07:18;;;;;;;11.38;5.25;;;1.80;99.90;;;;;;4868906;29;20061;-88
2021/01/26 05:10:10;;;;;;;7.90;3.80;;;1.80;99.90;;;;;;4884963;29;20053;-87
2021/01/26 05:12:45;;;;;;;11.80;4.28;;;1.80;99.90;;;;;;4874246;29;20060;-87
2021/01/26 05:15:19;;;;;;;8.23;4.00;;;1.90;99.90;;;;;;4872816;29;20053;-85
2021/01/26 05:17:59;;;;;;;8.35;4.18;;;;;;;;;;4865482;29;20086;-87
2021/01/26 05:20:40;;;;;;;10.48;5.82;;;1.90;99.90;;;;;;4893655;29;20048;-86
2021/01/26 05:23:15;;;;;;;9.13;4.43;;;1.80;99.90;;;;;;4894134;29;20052;-88
2021/01/26 05:26:08;;;;;;;12.73;4.38;;;;;;;;;;4902114;29;20053;-86
2021/01/26 05:28:37;;;;;;;6.95;3.55;;;;;;;;;;4858898;29;20060;-88
2021/01/26 05:31:08;;;;;;;10.93;4.07;;;1.80;99.90;;;;;;4890822;29;20367;-88
2021/01/26 05:33:37;;;;;;;9.60;3.88;;;;;;;;;;4868801;29;20056;-85
2021/01/26 05:36:05;;;;;;;7.28;3.63;;;;;;;;;;4875090;29;20056;-91
2021/01/26 05:38:34;;;;;;;5.28;3.47;;;;;;;;;;4874748;29;20367;-87
2021/01/26 05:41:04;;;;;;;13.23;3.38;;;;;;;;;;4859519;29;20049;-89
2021/01/26 05:43:34;;;;;;;11.57;3.80;;;1.80;99.90;;;;;;4875696;29;20052;-89
2021/01/26 05:46:06;;;;;;;7.50;3.72;;;2.00;99.90;;;;;;4904307;29;20063;-90
2021/01/26 05:48:48;;;;;;;11.30;3.70;;;2.00;99.90;;;;;;4859124;29;20049;-87
2021/01/26 05:51:23;;;;;;;7.22;3.88;;;1.90;99.90;;;;;;4890376;29;20076;-87
2021/01/26 05:54:10;;;;;;;5.65;3.08;;;3.20;99.90;;;;;;4892628;29;20057;-90
2021/01/26 05:56:50;;;;;;;7.60;3.50;;;2.10;99.90;;;;;;4872416;29;20045;-94
2021/01/26 05:59:19;;;;;;;;;;;2.00;99.90;;;;;;4903239;29;20053;-94
2021/01/26 06:01:47;;;;;;;7.47;3.13;;;;;;;;;;4899176;29;19923;-90
2021/01/26 06:04:19;;;;;;;7.43;4.18;;;1.90;99.90;;;;;;4902082;29;20048;-92
2021/01/26 06:06:53;;;;;;;4.70;2.85;;;;;;;;;;4898386;29;20059;-90
2021/01/26 06:09:37;;;;;;;4.15;2.72;;;2.10;99.90;;;;;;4898552;29;20056;-91
2021/01/26 06:12:12;;;;;;;11.40;3.85;;;;;;;;;;4876659;29;20421;-93
2021/01/26 06:14:43;;;;;;;7.03;4.15;;;2.10;99.90;;;;;;4914945;29;20509;-88
2021/01/26 06:17:11;;;;;;;15.30;4.00;;;;;;;;;;4885990;29;20032;-89
2021/01/26 06:19:40;;;;;;;5.72;3.25;;;;;;;;;;4903537;29;20047;-88
2021/01/26 06:22:07;;;;;;;4.10;3.17;;;;;;;;;;4916241;29;20059;-87
2021/01/26 06:24:37;;;;;;;9.38;3.40;;;2.20;99.90;;;;;;4910683;29;20154;-90
2021/01/26 06:27:30;;;;;;;5.32;2.40;;;2.30;99.90;;;;;;4903817;29;20061;-94
2021/01/26 06:30:24;;;;;;;6.03;4.18;;;2.20;99.90;;;;;;4874318;29;20060;-92
2021/01/26 06:33:34;;;;;;;5.30;3.60;;;2.20;99.90;;;;;;4884398;29;20130;-88
2021/01/26 06:36:05;;;;;;;6.15;3.58;;;;;;;;;;4865034;29;20069;-93
2021/01/26 06:39:07;;;;;;;4.35;3.15;;;2.40;99.90;;;;;;4898493;29;20072;-89
2021/01/26 06:41:44;;;;;;;6.68;2.92;;;;;;;;;;4883583;29;20080;-89
2021/01/26 06:44:13;;;;;;;2.60;2.40;;;;;;;;;;4892710;29;20060;-93
2021/01/26 06:46:47;;;;;;;15.18;3.47;;;;;;;;;;4897927;29;20053;-92
2021/01/26 06:49:44;;;;;;;4.18;2.70;;;2.30;99.90;;;;;;4878542;29;20340;-90
2021/01/26 06:52:20;;;;;;;5.07;3.28;;;;;;;;;;4894830;29;20061;-93
2021/01/26 06:55:36;;;;;;;4.40;2.95;;;2.30;99.90;;;;;;4866207;29;20041;-88
2021/01/26 06:58:09;;;;;;;4.68;3.15;;;;;;;;;;4881822;29;20508;-93
2021/01/26 07:01:16;;;;;;;6.25;4.22;;;2.20;99.90;;;;;;4913322;29;20070;-92
2021/01/26 07:04:20;;;;;;;11.73;3.63;;;2.30;99.90;;;;;;4902101;29;20056;-93
2021/01/26 07:06:49;;;;;;;7.57;3.63;;;;;;;;;;4894033;29;20057;-86
2021/01/26 07:09:52;;;;;;;9.23;3.40;;;2.10;99.90;;;;;;4898803;29;20056;-89
2021/01/26 07:13:05;;;;;;;7.95;3.55;;;2.20;99.90;;;;;;4850221;29;20056;-90
2021/01/26 07:16:02;;;;;;;9.82;3.40;;;2.30;99.90;;;;;;4851529;29;20057;-88
2021/01/26 07:18:31;;;;;;;9.88;3.38;;;;;;;;;;4861656;29;20044;-89
2021/01/26 07:21:09;;;;;;;6.63;4.03;;;;;;;;;;4885461;29;20064;-88
2021/01/26 07:23:37;;;;;;;11.35;5.40;;;;;;;;;;4860975;29;20067;-90
2021/01/26 07:26:37;;;;;;;6.03;3.60;;;2.10;99.90;;;;;;4880689;29;20497;-89
2021/01/26 07:29:14;;;;;;;5.53;3.17;;;;;;;;;;4859263;29;20052;-89
2021/01/26 07:31:57;;;;;;;5.75;3.20;;;2.10;99.90;;;;;;4876405;29;20075;-89
2021/01/26 07:34:58;;;;;;;6.70;3.65;;;2.10;99.90;;;;;;4862586;29;20045;-90
2021/01/26 07:37:33;;;;;;;12.48;5.00;;;;;;;;;;4906933;29;20057;-86
2021/01/26 07:40:06;;;;;;;9.18;4.82;;;;;;;;;;4907836;29;20063;-91
2021/01/26 07:42:47;;;;;;;6.72;3.55;;;2.00;99.90;;;;;;4881435;29;20052;-93
2021/01/26 07:45:30;;;;;;;9.65;3.80;;;1.90;99.90;;;;;;4876895;29;20056;-89
2021/01/26 07:48:26;;;;;;;11.45;4.28;;;2.10;99.90;;;;;;4862688;29;20053;-90
2021/01/26 07:51:01;;;;;;;10.88;3.83;;;2.10;99.90;;;;;;4874013;29;20052;-94
2021/01/26 07:53:57;;;;;;;8.93;3.22;;;2.10;99.90;;;;;;4873647;29;20053;-86
2021/01/26 07:56:37;;;;;;;7.50;3.50;;;2.10;99.90;;;;;;4869068;29;20089;-87
2021/01/26 07:59:23;;;;;;;5.05;3.75;;;;;;;;;;4846977;29;20486;-86
2021/01/26 08:01:57;;;;;;;4.25;2.58;;;2.10;99.90;;;;;;4883804;29;20063;-90
2021/01/26 08:04:41;;;;;;;10.02;3.55;;;2.20;99.90;;;;;;4859144;29;20061;-87
2021/01/26 08:07:24;;;;;;;4.88;2.88;;;2.10;99.90;;;;;;4873864;29;20063;-88
2021/01/26 08:10:02;;;;;;;11.82;3.75;;;2.10;99.90;;;;;;4847636;29;20063;-87
2021/01/26 08:12:33;;;;;;;5.85;3.33;;;;;;;;;;4879492;29;20056;-87
2021/01/26 08:15:33;;;;;;;5.90;4.25;;;2.20;99.90;;;;;;4887946;29;20048;-89
2021/01/26 08:18:25;;;;;;;13.55;3.85;;;;;;;;;;4853798;29;20046;-86
2021/01/26 08:21:35;;;;;;;6.93;3.13;;;2.30;99.90;;;;;;4859774;29;20053;-87
2021/01/26 08:24:13;;;;;;;6.53;3.58;;;;;;;;;;4853723;29;20065;-90
2021/01/26 08:27:24;;;;;;;8.57;3.42;;;;;;;;;;4822423;29;20049;-89
2021/01/26 08:30:58;;;;;;;5.05;2.92;;;;;;;;;;4858031;29;20049;-89
2021/01/26 08:33:43;;;;;;;16.13;3.65;;;;;;;;;;4833245;29;20062;-88
2021/01/26 08:37:08;;;;;;;11.73;4.65;;;2.60;99.90;;;;;;4911104;24;20060;-88
2021/01/26 08:39:52;;;;;;;10.23;4.32;;;;;;;;;;4893859;24;20057;-88
2021/01/26 08:42:45;;;;;;;9.27;5.13;;;;;;;;;;4828585;29;20522;-88
2021/01/26 08:45:39;;;;;;;13.32;4.82;;;;;;;;;;4870591;29;20045;-87
2021/01/26 08:48:30;;;;;;;11.35;5.75;;;;;;;;;;4890145;24;20247;-89
2021/01/26 08:51:10;;;;;;;20.40;5.97;;;2.90;99.90;;;;;;4848414;29;20125;-88
2021/01/26 08:53:43;;;;;;;12.40;5.40;;;;;;;;;;4846942;29;20064;-88
2021/01/26 08:56:22;;;;;;;13.65;5.88;;;;;;;;;;4844234;29;20058;-88
2021/01/26 08:59:03;;;;;;;13.20;6.40;;;;;;;;;;4832323;29;20049;-89
2021/01/26 09:02:16;;;;;;;11.13;6.28;;;;;;;;;;4892614;24;20049;-88
2021/01/26 09:04:57;;;;;;;11.77;6.18;;;2.80;99.90;;;;;;4841182;29;20060;-87
2021/01/26 09:08:15;;;;;;;13.48;7.15;;;;;;;;;;4867478;29;20057;-89
2021/01/26 09:10:55;;;;;;;16.10;6.88;;;3.10;99.90;;;;;;4858293;29;20045;-89
2021/01/26 09:13:28;;;;;;;12.63;7.45;;;;;;;;;;4890627;24;20065;-88
2021/01/26 09:16:30;;;;;;;21.40;7.88;;;;;;;;;;4857387;29;20053;-87
2021/01/26 09:19:42;;;;;;;21.25;7.43;;;;;;;;;;4878586;29;20057;-87
2021/01/26 09:22:28;;;;;;;17.58;7.25;;;;;;;;;;4845249;29;20062;-86
2021/01/26 09:25:10;;;;;;;18.25;8.55;;;2.90;99.90;;;;;;4811581;29;20060;-88
2021/01/26 09:28:07;;;;;;;21.33;8.43;;;;;;;;;;4810384;29;20045;-88
2021/01/26 09:30:58;;;;;;;17.77;7.85;;;3.10;99.90;;;;;;4820810;29;20058;-89
2021/01/26 09:33:31;;;;;;;18.25;8.93;;;;;;;;;;4802959;29;20415;-87
2021/01/26 09:36:34;;;;;;;25.90;9.75;;;3.30;99.90;;;;;;4817472;29;20058;-88
2021/01/26 09:39:16;;;;;;;14.80;7.55;;;;;;;;;;4817752;29;20054;-87
2021/01/26 09:41:48;;;;;;;18.05;8.82;;;;;;;;;;4809397;29;20054;-88
2021/01/26 09:44:36;;;;;;;22.38;9.30;;;;;;;;;;4830932;24;20049;-87
2021/01/26 09:47:19;;;;;;;14.55;6.93;;;3.40;99.90;;;;;;4838926;29;20049;-87
2021/01/26 09:50:08;;;;;;;16.73;7.60;;;;;;;;;;4855564;29;20073;-88
2021/01/26 09:52:56;;;;;;;14.77;8.38;;;;;;;;;;4840696;29;20050;-88
2021/01/26 09:55:27;;;;;;;14.52;5.38;;;;;;;;;;4849908;29;20054;-87
2021/01/26 09:57:59;;;;;;;14.25;7.15;;;3.80;99.90;;;;;;4868154;29;20054;-87
2021/01/26 10:00:31;;;;;;;12.50;7.97;;;;;;;;;;4857832;29;20050;-87
2021/01/26 10:03:05;;;;;;;21.80;10.40;;;;;;;;;;4872451;24;20056;-87
2021/01/26 10:05:40;;;;;;;16.55;8.65;;;;;;;;;;4845800;29;20068;-88
2021/01/26 10:08:24;;;;;;;18.88;7.47;;;;;;;;;;4876994;29;20049;-87
2021/01/26 10:11:26;;;;;;;18.27;7.72;;;4.20;99.90;;;;;;4865649;29;20049;-87
2021/01/26 10:14:29;;;;;;;17.77;9.88;;;4.10;99.90;;;;;;4864140;29;20458;-88
2021/01/26 10:17:02;;;;;;;17.08;9.40;;;;;;;;;;4874196;29;20065;-88
2021/01/26 10:19:37;;;;;;;16.83;7.40;;;;;;;;;;4861801;29;20041;-90
2021/01/26 10:22:23;;;;;;;21.63;7.40;;;;;;;;;;4874424;29;20064;-88
2021/01/26 10:25:11;;;;;;;12.68;5.85;;;4.50;99.90;;;;;;4873146;29;20049;-88
2021/01/26 10:27:46;;;;;;;19.33;9.10;;;;;;;;;;4887452;29;20061;-88
2021/01/26 10:30:25;;;;;;;16.75;7.65;;;4.50;99.90;;;;;;4887874;24;20072;-88
2021/01/26 10:33:01;;;;;;;6.10;4.07;;;;;;;;;;4868048;29;20049;-89
2021/01/26 10:35:39;;;;;;;5.85;4.05;;;;;;;;;;4871286;29;20421;-87
2021/01/26 10:38:31;;;;;;;4.85;3.13;;;4.80;99.90;;;;;;4846949;24;20050;-87
2021/01/26 10:41:39;;;;;;;3.03;2.75;;;4.80;99.90;;;;;;4818979;29;20067;-89
2021/01/26 10:44:11;;;;;;;5.35;2.75;;;5.10;99.90;;;;;;4831467;29;20609;-87
2021/01/26 10:46:51;;;;;;;4.50;3.10;;;;;;;;;;4824128;29;20065;-85
2021/01/26 10:49:33;;;;;;;3.50;2.80;;;;;;;;;;4829732;29;20057;-84
2021/01/26 10:52:06;;;;;;;8.68;3.67;;;5.30;99.90;;;;;;4823538;29;20050;-91
2021/01/26 10:54:37;;;;;;;10.52;2.90;;;;;;;;;;4825739;29;20070;-90
2021/01/26 10:57:06;;;;;;;9.60;2.80;;;;;;;;;;4808025;29;20451;-89
2021/01/26 10:59:35;;;;;;;8.13;2.72;;;;;;;;;;4815851;29;20069;-86
2021/01/26 11:02:11;;;;;;;6.90;2.60;;;;;;;;;;4809820;29;20051;-90
2021/01/26 11:04:44;;;;;;;12.13;3.88;;;;;;;;;;4841408;29;20073;-90
2021/01/26 11:07:12;;;;;;;6.43;3.47;;;;;;;;;;4827669;29;20076;-89
2021/01/26 11:09:48;;;;;;;10.37;4.60;;;5.80;99.90;;;;;;4826860;29;20050;-88
2021/01/26 11:12:20;;;;;;;7.72;3.83;;;;;;;;;;4826118;29;20787;-87
2021/01/26 11:14:57;;;;;;;4.53;3.00;;;;;;;;;;4827213;29;20061;-87
2021/01/26 11:17:25;;;;;;;5.03;3.05;;;;;;;;;;4824655;29;20057;-87
2021/01/26 11:19:56;;;;;;;7.53;2.83;;;;;;;;;;4828934;29;20055;-89
2021/01/26 11:22:28;;;;;;;4.78;2.53;;;;;;;;;;4825549;29;20547;-87
2021/01/26 11:24:56;;;;;;;7.43;3.83;;;;;;;;;;4822046;29;20061;-87
2021/01/26 11:27:24;;;;;;;7.40;2.65;;;;;;;;;;4825361;29;20050;-89
2021/01/26 11:29:53;;;;;;;5.65;2.72;;;;;;;;;;4819114;29;20062;-88
2021/01/26 11:32:22;;;;;;;4.07;2.47;;;;;;;;;;4801461;29;20055;-88
2021/01/26 11:34:51;;;;;;;4.43;2.53;;;;;;;;;;4790431;29;20496;-87
2021/01/26 11:37:19;;;;;;;4.25;2.42;;;;;;;;;;4806779;29;20051;-91
2021/01/26 11:39:52;;;;;;;8.50;4.40;;;;;;;;;;4819413;29;20059;-86
2021/01/26 11:42:21;;;;;;;3.30;2.97;;;;;;;;;;4824298;29;20102;-90
2021/01/26 11:44:53;;;;;;;8.15;3.35;;;;;;;;;;4824911;29;20384;-92
2021/01/26 11:47:23;;;;;;;6.07;2.83;;;;;;;;;;4828743;29;20055;-86
2021/01/26 11:49:58;;;;;;;4.43;3.15;;;;;;;;;;4825619;29;20408;-84
2021/01/26 11:52:31;;;;;;;5.45;2.33;;;5.70;99.90;;;;;;4807152;29;20054;-85
2021/01/26 11:55:30;;;;;;;2.75;2.50;;;5.60;99.90;;;;;;4825403;29;20066;-87
2021/01/26 11:58:05;;;;;;;4.35;2.90;;;;;;;;;;4809462;29;20057;-85
2021/01/26 12:00:35;;;;;;;5.18;3.03;;;;;;;;;;4786688;29;20058;-88
2021/01/26 12:03:05;;;;;;;4.00;2.15;;;;;;;;;;4801631;29;20062;-87
2021/01/26 12:05:40;;;;;;;6.85;2.50;;;5.60;99.90;;;;;;4797588;29;20054;-86
2021/01/26 12:08:13;;;;;;;6.75;2.20;;;;;;;;;;4809757;29;20069;-89
2021/01/26 12:10:53;;;;;;;3.92;2.67;;;5.60;99.90;;;;;;4824985;29;20058;-89
2021/01/26 12:13:25;;;;;;;4.97;2.03;;;;;;;;;;4786733;29;20511;-84
2021/01/26 12:16:01;;;;;;;5.40;2.20;;;5.60;99.90;;;;;;4812277;29;20062;-87
2021/01/26 12:18:36;;;;;;;2.45;2.17;;;;;;;;;;4830198;29;20073;-86
2021/01/26 12:21:07;;;;;;;3.53;2.30;;;;;;;;;;4813629;29;20125;-85
2021/01/26 12:23:43;;;;;;;4.85;2.50;;;;;;;;;;4814161;29;20058;-85
2021/01/26 12:26:11;;;;;;;5.88;2.55;;;;;;;;;;4812529;29;20050;-86
2021/01/26 12:28:41;;;;;;;6.28;1.92;;;;;;;;;;4794559;29;20061;-84
2021/01/26 12:31:11;;;;;;;9.48;2.75;;;;;;;;;;4826857;29;20054;-86
2021/01/26 12:33:47;;;;;;;3.78;2.20;;;;;;;;;;4802178;29;20054;-87
2021/01/26 12:36:19;;;;;;;5.20;2.40;;;;;;;;;;4806698;29;20059;-86
2021/01/26 12:38:47;;;;;;;11.88;2.58;;;;;;;;;;4829260;29;20157;-86
2021/01/26 12:41:40;;;;;;;3.03;2.38;;;;;;;;;;4804996;29;20145;-86
2021/01/26 12:44:16;;;;;;;2.55;2.35;;;;;;;;;;4808828;29;20061;-84
2021/01/26 12:46:45;;;;;;;6.22;2.83;;;;;;;;;;4807534;29;20070;-88
2021/01/26 12:49:20;;;;;;;4.43;2.35;;;;;;;;;;4828434;29;20063;-87
2021/01/26 12:51:49;;;;;;;4.22;2.55;;;;;;;;;;4834166;29;20058;-89
2021/01/26 12:54:29;;;;;;;5.80;3.05;;;;;;;;;;4816127;29;20059;-88
2021/01/26 12:57:06;;;;;;;3.45;2.67;;;;;;;;;;4821298;29;20250;-87
2021/01/26 12:59:43;;;;;;;9.45;3.05;;;;;;;;;;4803200;29;20065;-87
2021/01/26 13:02:20;;;;;;;6.03;3.08;;;;;;;;;;4823571;29;20054;-89
2021/01/26 13:04:57;;;;;;;25.23;4.50;;;;;;;;;;4829259;29;20054;-87
2021/01/26 13:07:29;;;;;;;7.20;5.72;;;;;;;;;;4822543;29;20070;-89
2021/01/26 13:10:08;;;;;;;11.05;3.85;;;;;;;;;;4815653;29;20051;-87
2021/01/26 13:12:39;;;;;;;12.73;3.05;;;;;;;;;;4824494;29;20066;-92
2021/01/26 13:15:11;;;;;;;8.45;3.30;;;;;;;;;;4823315;29;20065;-92
2021/01/26 13:17:41;;;;;;;7.68;3.60;;;;;;;;;;4835774;29;20707;-89
2021/01/26 13:20:14;;;;;;;4.38;3.25;;;6.20;99.90;;;;;;4841689;29;20050;-89
2021/01/26 13:22:46;;;;;;;9.15;3.15;;;6.50;99.90;;;;;;4817086;29;20047;-91
2021/01/26 13:25:31;;;;;;;6.28;3.65;;;;;;;;;;4809755;29;20058;-88
2021/01/26 13:28:02;;;;;;;10.23;3.88;;;;;;;;;;4816902;29;20060;-86
2021/01/26 13:30:42;;;;;;;11.23;3.22;;;6.70;99.90;;;;;;4830981;29;20062;-87
2021/01/26 13:33:18;;;;;;;5.70;2.70;;;;;;;;;;4828307;29;20067;-88
2021/01/26 13:35:57;;;;;;;17.08;4.63;;;;;;;;;;4806750;29;20063;-85
2021/01/26 13:38:35;;;;;;;11.10;5.15;;;;;;;;;;4815643;29;20046;-88
2021/01/26 13:41:17;;;;;;;7.63;4.20;;;6.90;99.90;;;;;;4823878;29;20057;-91
2021/01/26 13:44:32;;;;;;;8.73;3.03;;;;;;;;;;4829858;29;20057;-87
2021/01/26 13:47:18;;;;;;;14.25;3.90;;;6.90;99.90;;;;;;4833266;29;20058;-86
2021/01/26 13:49:47;;;;;;;;;;;6.90;99.90;;;;;;4829151;29;20050;-87
2021/01/26 13:52:22;;;;;;;8.55;3.65;;;;;;;;;;4843630;29;19933;-88
2021/01/26 13:54:53;;;;;;;9.15;3.25;;;;;;;;;;4831773;29;20054;-89
2021/01/26 13:57:27;;;;;;;7.35;2.70;;;;;;;;;;4829779;29;20056;-88
2021/01/26 14:00:03;;;;;;;10.68;3.05;;;;;;;;;;4842445;29;20050;-89
2021/01/26 14:02:38;;;;;;;11.97;3.30;;;;;;;;;;4832182;29;20066;-87
2021/01/26 14:05:12;;;;;;;13.10;3.83;;;;;;;;;;4815678;29;20069;-88
2021/01/26 14:07:41;;;;;;;15.05;3.60;;;;;;;;;;4827535;29;20053;-86
2021/01/26 14:10:11;;;;;;;7.30;3.28;;;;;;;;;;4805733;29;20066;-89
2021/01/26 14:12:49;;;;;;;13.65;5.57;;;;;;;;;;4845334;29;20247;-93
2021/01/26 14:15:32;;;;;;;8.45;3.53;;;;;;;;;;4820418;29;20064;-87
2021/01/26 14:18:05;;;;;;;11.18;4.28;;;;;;;;;;4823225;29;20065;-89
2021/01/26 14:20:43;;;;;;;18.50;7.28;;;;;;;;;;4840576;29;20041;-87
2021/01/26 14:23:15;;;;;;;12.45;5.03;;;;;;;;;;4823916;29;20086;-85
2021/01/26 14:25:50;;;;;;;10.63;4.82;;;;;;;;;;4831682;29;20053;-87
2021/01/26 14:28:19;;;;;;;18.23;6.15;;;;;;;;;;4830829;29;20074;-89
2021/01/26 14:30:50;;;;;;;12.07;6.03;;;;;;;;;;4831433;29;20070;-87
2021/01/26 14:33:20;;;;;;;18.23;5.90;;;;;;;;;;4827712;29;20050;-87
2021/01/26 14:35:57;;;;;;;21.13;6.53;;;6.60;99.90;;;;;;4850414;29;20065;-86
2021/01/26 14:38:32;;;;;;;;;;;6.70;99.90;;;;;;4811586;29;20050;-92
2021/01/26 14:41:05;;;;;;;22.98;7.32;;;6.60;99.90;;;;;;4781926;29;19923;-88
2021/01/26 14:43:40;;;;;;;23.50;8.32;;;6.70;99.90;;;;;;4812438;29;20138;-87
2021/01/26 14:46:28;;;;;;;15.10;6.57;;;;;;;;;;4785998;29;20054;-87
2021/01/26 14:49:10;;;;;;;17.90;7.57;;;;;;;;;;4795387;29;20055;-86
2021/01/26 14:51:49;;;;;;;16.35;9.35;;;;;;;;;;4808735;29;20139;-86
2021/01/26 14:54:23;;;;;;;26.80;11.73;;;;;;;;;;4817581;29;20051;-85
2021/01/26 14:56:59;;;;;;;32.85;12.90;;;;;;;;;;4794430;29;20059;-87
2021/01/26 14:59:50;;;;;;;29.63;11.45;;;;;;;;;;4797851;29;20055;-89
2021/01/26 15:02:39;;;;;;;30.63;12.65;;;;;;;;;;4777920;29;20055;-86